Flight Track Log - Related Links

Times and Time Zones

All times are in EDT time to prevent confusion due to time zone crossing. See the N10155 flight status page for this flight to view local times or setup timezone preferences in your user account.

Time Position Orientation Groundspeed Altitude Reporting Facility
EDT Latitude Longitude Course Direction KTS MPH feet Rate Location/Type
Wed 10:32:11 AM 30.8647 -97.3697 North 181 208 4,300  Level Fort Worth Center
Wed 10:33:16 AM 30.9111 -97.3567 14° North 177 204 4,800 472 Climbing Fort Worth Center
Wed 10:34:18 AM 30.9600 -97.3425 14° North 177 204 5,300 290 Climbing Fort Worth Center
Wed 10:35:20 AM 31.0178 -97.3269 13° North 182 209 5,400  Climbing Fort Worth Center
Wed 10:36:14 AM 31.0683 -97.3111 15° North 198 228 5,300 -48 Descending Fort Worth Center
Wed 10:37:24 AM 31.1294 -97.2947 13° North 194 223 5,300  Level Fort Worth Center
Wed 10:38:26 AM 31.1831 -97.2792 14° North 195 224 5,300  Level Fort Worth Center
Wed 10:39:28 AM 31.2356 -97.2642 14° North 195 224 5,300  Level Fort Worth Center
Wed 10:40:30 AM 31.2889 -97.2489 14° North 195 224 5,300  Level Fort Worth Center
Wed 10:41:01 AM 31.3208 -97.2403 13° North 197 227 5,300  Level Fort Worth Center
Wed 10:41:33 AM 31.3425 -97.2333 15° North 196 226 5,300  Level Fort Worth Center
Wed 10:42:35 AM 31.3961 -97.2194 12° North 196 226 5,300  Level Fort Worth Center
Wed 10:43:37 AM 31.4594 -97.2008 14° North 196 226 5,300  Level Fort Worth Center
Wed 10:44:39 AM 31.5119 -97.1856 14° North 196 226 5,300  Level Fort Worth Center
Wed 10:45:41 AM 31.5642 -97.1714 13° North 196 226 5,300  Level Fort Worth Center
Wed 10:46:43 AM 31.6169 -97.1558 14° North 195 224 5,300  Level Fort Worth Center
Wed 10:47:46 AM 31.6686 -97.1403 14° North 194 223 5,300  Level Fort Worth Center
Wed 10:48:48 AM 31.7322 -97.1211 14° North 194 223 5,300  Level Fort Worth Center
Wed 10:49:26 AM 31.7681 -97.1119 12° North 193 222 5,300  Level Fort Worth Center
Wed 10:49:50 AM 31.7853 -97.1061 16° North 195 224 5,300  Level Fort Worth Center
Wed 10:50:52 AM 31.8361 -97.0922 13° North 193 222 5,300  Level Fort Worth Center
Wed 10:51:54 AM 31.8889 -97.0778 13° North 193 222 5,300  Level Fort Worth Center
Wed 10:52:56 AM 31.9397 -97.0631 14° North 192 221 5,300  Level Fort Worth Center
Wed 10:53:58 AM 31.9972 -97.0464 14° North 192 221 5,300  Level Fort Worth Center
Wed 10:55:01 AM 32.0486 -97.0319 13° North 192 221 5,300 -224 Level Fort Worth Center
Wed 10:56:39 AM 32.1375 -97.0064 14° North 191 220 4,700 -387 Descending Fort Worth Center
Wed 10:57:05 AM 32.1617 -96.9972 18° North 192 221 4,500 -409 Descending Fort Worth Center
Wed 10:58:07 AM 32.2103 -96.9842 13° North 185 213 4,100 -435 Descending Fort Worth Center
Wed 10:59:09 AM 32.2644 -96.9694 13° North 187 215 3,600 -484 Descending Fort Worth Center
Wed 11:00:11 AM 32.3150 -96.9539 15° North 187 215 3,100 -432 Descending Fort Worth Center
Wed 11:01:14 AM 32.3722 -96.9378 13° North 188 216 2,700 -381 Descending Fort Worth Center

Login

Don't have an account? Register now (free) for customized features, flight alerts, and more!